Time;durP1;ratioP1;P1;durP2;ratioP2;P2;SDS_P1;SDS_P2;PMS_P1;PMS_P2;Temp;Humidity;BMP_temperature;BMP_pressure;BME280_temperature;BME280_humidity;BME280_pressure;Samples;Min_cycle;Max_cycle;Signal;HPM_P1;HPM_P2
2021/01/18 00:00:28;;;;;;;81.67;28.53;;;;;;;;;;4971085;28;20414;-82
2021/01/18 00:02:54;;;;;;;77.77;28.50;;;;;;;;;;4971524;28;20321;-81
2021/01/18 00:05:20;;;;;;;77.93;28.50;;;;;;;;;;4966068;28;20278;-82
2021/01/18 00:07:46;;;;;;;69.37;24.23;;;;;;;;;;4951726;28;20401;-82
2021/01/18 00:10:17;;;;;;;69.90;26.93;;;;;;;;;;4969983;28;20278;-82
2021/01/18 00:12:44;;;;;;;71.13;30.07;;;;;;;;;;4954714;28;20286;-82
2021/01/18 00:15:10;;;;;;;62.00;26.63;;;;;;;;;;4971497;28;20274;-80
2021/01/18 00:17:36;;;;;;;68.80;28.03;;;;;;;;;;4971135;28;20282;-83
2021/01/18 00:20:04;;;;;;;53.10;24.37;;;;;;;;;;4955465;28;20282;-82
2021/01/18 00:22:30;;;;;;;58.50;26.83;;;;;;;;;;4955796;28;20346;-81
2021/01/18 00:24:56;;;;;;;61.27;24.97;;;;;;;;;;4971038;28;20609;-82
2021/01/18 00:27:22;;;;;;;57.67;26.40;;;;;;;;;;4971106;28;20366;-82
2021/01/18 00:29:48;;;;;;;51.23;21.53;;;;;;;;;;4963256;28;20337;-80
2021/01/18 00:32:15;;;;;;;47.33;23.47;;;;;;;;;;4971215;28;20300;-82
2021/01/18 00:34:41;;;;;;;49.93;24.00;;;;;;;;;;4955203;28;20834;-82
2021/01/18 00:37:09;;;;;;;61.50;26.60;;;;;;;;;;4968149;28;20278;-82
2021/01/18 00:39:36;;;;;;;47.97;23.70;;;;;;;;;;4971434;28;20329;-82
2021/01/18 00:42:02;;;;;;;52.83;24.10;;;;;;;;;;4970986;28;20274;-82
2021/01/18 00:44:30;;;;;;;66.40;27.67;;;;;;;;;;4972409;28;20629;-81
2021/01/18 00:47:09;;;;;;;65.40;28.23;;;;;;;;;;4970491;28;20274;-82
2021/01/18 00:53:26;;;;;;;;;;;;;;;;;;;;;
2021/01/18 00:56:17;;;;;;;59.43;27.73;;;;;;;;;;4959283;28;20289;-82
2021/01/18 01:02:27;;;;;;;;;;;;;;;;;;;;;
2021/01/18 01:21:21;;;;;;;34.60;16.23;;;;;;;;;;4952247;29;20468;-80
2021/01/18 01:26:55;;;;;;;32.90;18.47;;;;;;;;;;4963905;28;20858;-82
2021/01/18 01:29:41;;;;;;;31.50;17.10;;;;;;;;;;4953992;28;20281;-81
2021/01/18 01:32:30;;;;;;;29.33;17.10;;;;;;;;;;4970395;28;20799;-83
2021/01/18 01:35:37;;;;;;;31.47;17.40;;;;;;;;;;4969802;28;20337;-82
2021/01/18 01:38:11;;;;;;;28.90;15.83;;;;;;;;;;4960917;28;20283;-80
2021/01/18 01:40:45;;;;;;;34.97;16.97;;;;;;;;;;4968565;28;20632;-82
2021/01/18 01:43:23;;;;;;;29.00;14.93;;;;;;;;;;4969504;28;20274;-83
2021/01/18 01:45:53;;;;;;;22.93;12.63;;;;;;;;;;4969605;28;20365;-82
2021/01/18 01:48:44;;;;;;;28.90;15.73;;;;;;;;;;4970588;28;20258;-82
2021/01/18 01:51:30;;;;;;;29.07;17.17;;;;;;;;;;4969705;28;20286;-82
2021/01/18 01:53:59;;;;;;;31.60;19.67;;;;;;;;;;4956673;28;20334;-82
2021/01/18 01:56:59;;;;;;;;;;;;;;;;;;;;;
2021/01/18 02:00:03;;;;;;;29.63;17.27;;;;;;;;;;4951189;29;20258;-82
2021/01/18 02:02:53;;;;;;;24.92;15.55;;;;;;;;;;4951781;28;20273;-81
2021/01/18 02:05:32;;;;;;;28.53;17.07;;;;;;;;;;4954991;28;20035;-82
2021/01/18 02:08:28;;;;;;;;;;;;;;;;;;;;;
2021/01/18 02:11:08;;;;;;;29.93;15.93;;;;;;;;;;4959682;28;20277;-82
2021/01/18 02:13:57;;;;;;;26.77;16.00;;;;;;;;;;4934427;29;20283;-82
2021/01/18 02:16:51;;;;;;;33.70;17.67;;;;;;;;;;4935259;28;20338;-82
2021/01/18 02:19:40;;;;;;;29.02;16.17;;;;;;;;;;4953186;28;20272;-82
2021/01/18 02:22:24;;;;;;;31.80;16.87;;;;;;;;;;4967037;28;20512;-82
2021/01/18 02:24:59;;;;;;;34.97;18.20;;;;;;;;;;4984821;28;20258;-83
2021/01/18 02:27:51;;;;;;;30.63;17.23;;;;;;;;;;4969609;28;20274;-82
2021/01/18 02:33:44;;;;;;;32.53;19.50;;;;;;;;;;4971136;28;20429;-82
2021/01/18 02:36:29;;;;;;;38.57;19.50;;;;;;;;;;4969436;28;20263;-82
2021/01/18 02:39:14;;;;;;;32.23;18.70;;;;;;;;;;4963418;28;20277;-82
2021/01/18 02:41:46;;;;;;;39.87;22.23;;;;;;;;;;4957024;28;20263;-83
2021/01/18 02:44:32;;;;;;;35.77;18.67;;;;;;;;;;4943070;28;20266;-83
2021/01/18 02:47:05;;;;;;;24.60;12.77;;;;;;;;;;4953319;28;20267;-82
2021/01/18 02:49:34;;;;;;;35.33;19.70;;;;;;;;;;4952552;28;20278;-82
2021/01/18 02:52:06;;;;;;;43.67;20.23;;;;;;;;;;4963954;28;20031;-82
2021/01/18 02:54:46;;;;;;;40.37;21.20;;;;;;;;;;4969980;28;20255;-83
2021/01/18 02:57:17;;;;;;;34.57;18.70;;;;;;;;;;4934229;29;20332;-82
2021/01/18 02:59:46;;;;;;;41.17;21.27;;;;;;;;;;4959455;28;20274;-82
2021/01/18 03:02:41;;;;;;;42.30;22.00;;;;;;;;;;4950322;28;20384;-81
2021/01/18 03:05:16;;;;;;;40.73;19.17;;;;;;;;;;4971318;28;20273;-82
2021/01/18 03:08:03;;;;;;;39.77;20.20;;;;;;;;;;4967698;28;20322;-82
2021/01/18 03:10:48;;;;;;;41.23;21.53;;;;;;;;;;4971392;28;20278;-83
2021/01/18 03:13:30;;;;;;;44.20;23.53;;;;;;;;;;4988778;28;20274;-80
2021/01/18 03:16:03;;;;;;;32.73;14.73;;;;;;;;;;4977479;28;20275;-81
2021/01/18 03:18:36;;;;;;;40.97;20.90;;;;;;;;;;4970780;28;20278;-80
2021/01/18 03:21:02;;;;;;;21.63;11.88;;;;;;;;;;4986257;28;20274;-79
2021/01/18 03:23:34;;;;;;;42.87;21.30;;;;;;;;;;4989056;28;20019;-81
2021/01/18 03:26:00;;;;;;;36.00;20.60;;;;;;;;;;4992914;28;20349;-81
2021/01/18 03:28:26;;;;;;;38.27;19.63;;;;;;;;;;4966373;28;20293;-80
2021/01/18 03:30:57;;;;;;;41.10;21.50;;;;;;;;;;4976899;28;20374;-80
2021/01/18 03:33:40;;;;;;;38.50;18.47;;;;;;;;;;4960396;28;20421;-81
2021/01/18 03:36:07;;;;;;;32.28;16.42;;;;;;;;;;4960166;28;20275;-80
2021/01/18 03:38:39;;;;;;;39.53;20.23;;;;;;;;;;4985845;28;20030;-79
2021/01/18 03:41:05;;;;;;;31.93;17.50;;;;;;;;;;4995159;28;20325;-80
2021/01/18 03:43:39;;;;;;;32.93;18.03;;;;;;;;;;4978483;28;20295;-80
2021/01/18 03:46:05;;;;;;;;;;;;;;;;;;4993785;28;20271;-80
2021/01/18 03:48:31;;;;;;;36.10;19.43;;;;;;;;;;4999087;28;19894;-81
2021/01/18 03:51:25;;;;;;;37.30;17.33;;;;;;;;;;4979634;28;20046;-81
2021/01/18 03:54:09;;;;;;;33.30;18.33;;;;;;;;;;4934620;28;20298;-80
2021/01/18 03:56:41;;;;;;;;;;;;;;;;;;4999400;28;20257;-80
2021/01/18 03:59:30;;;;;;;30.60;17.10;;;;;;;;;;5015293;28;19910;-81
2021/01/18 04:01:56;;;;;;;30.23;17.07;;;;;;;;;;5013310;28;20259;-81
2021/01/18 04:04:25;;;;;;;32.20;17.20;;;;;;;;;;4998024;28;20266;-80
2021/01/18 04:06:51;;;;;;;34.70;18.00;;;;;;;;;;4996064;28;20262;-81
2021/01/18 04:09:17;;;;;;;35.97;19.00;;;;;;;;;;4968944;28;20262;-80
2021/01/18 04:11:43;;;;;;;30.53;17.53;;;;;;;;;;4981593;28;20259;-79
2021/01/18 04:14:24;;;;;;;28.53;16.33;;;;;;;;;;4982055;28;20278;-79
2021/01/18 04:16:50;;;;;;;31.27;17.30;;;;;;;;;;4981452;28;20269;-79
2021/01/18 04:19:16;;;;;;;33.33;17.67;;;;;;;;;;4982238;28;20688;-80
2021/01/18 04:21:42;;;;;;;26.13;15.33;;;;;;;;;;4998126;28;20258;-79
2021/01/18 04:24:09;;;;;;;23.10;14.30;;;;;;;;;;4998106;28;20274;-79
2021/01/18 04:26:38;;;;;;;28.03;15.13;;;;;;;;;;4993382;28;20282;-82
2021/01/18 04:29:04;;;;;;;27.83;15.43;;;;;;;;;;4945061;29;20273;-82
2021/01/18 04:31:30;;;;;;;25.23;15.07;;;;;;;;;;4954360;28;20628;-82
2021/01/18 04:33:56;;;;;;;26.13;14.53;;;;;;;;;;4980325;28;20791;-79
2021/01/18 04:36:22;;;;;;;26.23;15.27;;;;;;;;;;4977329;28;20265;-82
2021/01/18 04:38:50;;;;;;;26.97;15.90;;;;;;;;;;4976552;28;20277;-82
2021/01/18 04:41:16;;;;;;;21.43;13.67;;;;;;;;;;4974049;28;20266;-80
2021/01/18 04:43:45;;;;;;;21.80;13.43;;;;;;;;;;4969330;28;20779;-81
2021/01/18 04:46:14;;;;;;;25.57;14.43;;;;;;;;;;4973477;28;20282;-81
2021/01/18 04:48:41;;;;;;;22.77;13.33;;;;;;;;;;4975828;28;20321;-81
2021/01/18 04:51:07;;;;;;;22.40;13.17;;;;;;;;;;4959410;28;20314;-81
2021/01/18 04:53:34;;;;;;;20.33;11.87;;;;;;;;;;4956377;28;20297;-80
2021/01/18 04:56:18;;;;;;;22.60;13.33;;;;;;;;;;4957034;28;20271;-81
2021/01/18 04:58:46;;;;;;;21.80;12.53;;;;;;;;;;4957450;28;20349;-80
2021/01/18 05:01:15;;;;;;;21.33;13.00;;;;;;;;;;4973125;28;20266;-81
2021/01/18 05:03:45;;;;;;;21.67;13.27;;;;;;;;;;4973399;28;20282;-80
2021/01/18 05:06:11;;;;;;;23.37;12.50;;;;;;;;;;4953680;29;20286;-81
2021/01/18 05:08:40;;;;;;;24.97;13.33;;;;;;;;;;4937818;29;20274;-80
2021/01/18 05:11:06;;;;;;;21.57;13.37;;;;;;;;;;4945081;28;20285;-81
2021/01/18 05:13:33;;;;;;;21.87;12.60;;;;;;;;;;4958799;28;20293;-81
2021/01/18 05:15:59;;;;;;;18.53;12.03;;;;;;;;;;4972573;28;20294;-81
2021/01/18 05:18:32;;;;;;;19.63;11.47;;;;;;;;;;4973812;28;20274;-80
2021/01/18 05:21:01;;;;;;;24.77;13.43;;;;;;;;;;4964915;28;20280;-81
2021/01/18 05:23:27;;;;;;;16.43;10.37;;;;;;;;;;4962546;28;20788;-80
2021/01/18 05:26:13;;;;;;;17.40;10.57;;;;;;;;;;4959092;28;20285;-80
2021/01/18 05:28:43;;;;;;;16.93;10.03;;;;;;;;;;4965313;28;20266;-81
2021/01/18 05:31:09;;;;;;;16.50;10.57;;;;;;;;;;4971521;28;20301;-81
2021/01/18 05:33:38;;;;;;;17.00;9.93;;;;;;;;;;4976142;28;20409;-81
2021/01/18 05:36:10;;;;;;;18.70;10.90;;;;;;;;;;4957736;28;21085;-81
2021/01/18 05:38:37;;;;;;;16.50;10.83;;;;;;;;;;4957652;28;20286;-81
2021/01/18 05:41:03;;;;;;;18.50;10.93;;;;;;;;;;4957215;28;20262;-80
2021/01/18 05:43:33;;;;;;;20.50;11.60;;;;;;;;;;4972202;28;20281;-81
2021/01/18 05:46:04;;;;;;;17.10;9.93;;;;;;;;;;4959954;28;20763;-81
2021/01/18 05:48:30;;;;;;;18.13;10.07;;;;;;;;;;4944951;29;20295;-81
2021/01/18 05:50:57;;;;;;;17.10;11.13;;;;;;;;;;4938516;28;20361;-81
2021/01/18 05:53:28;;;;;;;18.43;10.43;;;;;;;;;;4954651;28;20301;-82
2021/01/18 05:55:54;;;;;;;14.93;9.57;;;;;;;;;;4957345;28;20313;-81
2021/01/18 05:58:32;;;;;;;13.30;8.30;;;;;;;;;;4974846;28;20316;-82
2021/01/18 06:00:59;;;;;;;13.20;6.33;;;;;;;;;;4959395;28;20775;-81
2021/01/18 06:03:29;;;;;;;15.40;7.63;;;;;;;;;;4945315;28;20310;-81
2021/01/18 06:05:55;;;;;;;12.47;6.73;;;;;;;;;;4947831;28;20763;-81
2021/01/18 06:08:22;;;;;;;13.03;7.83;;;;;;;;;;4956009;28;20277;-82
2021/01/18 06:10:49;;;;;;;13.53;8.77;;;;;;;;;;4955736;28;20286;-82
2021/01/18 06:13:22;;;;;;;10.83;6.87;;;;;;;;;;4955914;28;20289;-81
2021/01/18 06:15:49;;;;;;;11.80;6.53;;;;;;;;;;4936928;29;20270;-82
2021/01/18 06:18:16;;;;;;;11.50;6.03;;;;;;;;;;4952488;28;20278;-81
2021/01/18 06:20:43;;;;;;;9.30;5.53;;;;;;;;;;4972113;28;20768;-82
2021/01/18 06:23:37;;;;;;;10.73;5.03;;;;;;;;;;4965933;28;20330;-80
2021/01/18 06:26:04;;;;;;;9.50;5.82;;;;;;;;;;4946633;28;20271;-79
2021/01/18 06:28:37;;;;;;;10.73;5.83;;;;;;;;;;4955470;28;20023;-80
2021/01/18 06:31:03;;;;;;;9.98;4.85;;;;;;;;;;4955737;28;20967;-82
2021/01/18 06:33:38;;;;;;;11.10;5.83;;;;;;;;;;4967197;28;20035;-81
2021/01/18 06:36:13;;;;;;;8.50;5.13;;;;;;;;;;4977120;28;20270;-83
2021/01/18 06:41:36;;;;;;;12.40;7.25;;;;;;;;;;4956014;28;20299;-83
2021/01/18 06:44:04;;;;;;;11.60;5.87;;;;;;;;;;4950918;28;20035;-81
2021/01/18 06:46:32;;;;;;;16.10;9.00;;;;;;;;;;4951566;28;20269;-82
2021/01/18 06:49:01;;;;;;;17.17;10.43;;;;;;;;;;4968631;28;20282;-82
2021/01/18 06:51:29;;;;;;;14.17;8.33;;;;;;;;;;4972597;28;20277;-81
2021/01/18 06:54:11;;;;;;;12.93;7.20;;;;;;;;;;4971852;28;20278;-82
2021/01/18 07:00:06;;;;;;;13.90;8.33;;;;;;;;;;4963699;28;20321;-82
2021/01/18 07:02:44;;;;;;;18.30;10.27;;;;;;;;;;4954870;28;20646;-82
2021/01/18 07:05:26;;;;;;;18.03;9.87;;;;;;;;;;4970553;28;20649;-82
2021/01/18 07:08:03;;;;;;;16.90;9.43;;;;;;;;;;4935851;29;20752;-83
2021/01/18 07:10:31;;;;;;;20.73;11.37;;;;;;;;;;4936652;29;20277;-80
2021/01/18 07:13:00;;;;;;;19.17;11.37;;;;;;;;;;4951259;28;20324;-81
2021/01/18 07:15:31;;;;;;;16.17;9.37;;;;;;;;;;4971831;28;20325;-81
2021/01/18 07:18:05;;;;;;;17.40;10.43;;;;;;;;;;4972701;28;20282;-81
2021/01/18 07:20:36;;;;;;;17.70;10.20;;;;;;;;;;4960976;28;20357;-81
2021/01/18 07:23:07;;;;;;;15.80;10.10;;;;;;;;;;4968116;28;20477;-81
2021/01/18 07:25:45;;;;;;;18.53;10.30;;;;;;;;;;4958551;28;20270;-82
2021/01/18 07:28:20;;;;;;;21.13;11.37;;;;;;;;;;4966010;28;20281;-81
2021/01/18 07:30:55;;;;;;;30.67;16.93;;;;;;;;;;4989927;28;20270;-81
2021/01/18 07:33:21;;;;;;;23.97;12.43;;;;;;;;;;4973689;28;20297;-80
2021/01/18 07:36:09;;;;;;;20.27;12.27;;;;;;;;;;4974751;28;20270;-82
2021/01/18 07:38:37;;;;;;;14.07;7.97;;;;;;;;;;4960253;28;20314;-82
2021/01/18 07:41:15;;;;;;;19.50;10.73;;;;;;;;;;4960562;28;20262;-83
2021/01/18 07:43:47;;;;;;;18.03;9.93;;;;;;;;;;4964644;28;20274;-83
2021/01/18 07:46:29;;;;;;;17.42;10.75;;;;;;;;;;4941372;28;20338;-82
2021/01/18 07:48:56;;;;;;;20.57;11.50;;;;;;;;;;4947666;28;20026;-82
2021/01/18 07:54:33;;;;;;;23.00;11.13;;;;;;;;;;4978791;28;20385;-82
2021/01/18 07:57:19;;;;;;;20.90;12.25;;;;;;;;;;4975176;28;20027;-82
2021/01/18 08:06:01;;;;;;;20.48;11.98;;;;;;;;;;4981247;28;20029;-81
2021/01/18 08:14:54;;;;;;;22.57;13.23;;;;;;;;;;4917324;29;20332;-82
2021/01/18 08:17:26;;;;;;;27.00;14.43;;;;;;;;;;4920425;29;20268;-81
2021/01/18 08:20:27;;;;;;;21.80;11.77;;;;;;;;;;4927171;29;20284;-83
2021/01/18 08:26:11;;;;;;;18.23;10.15;;;;;;;;;;4975785;28;20270;-81
2021/01/18 08:31:49;;;;;;;22.40;12.67;;;;;;;;;;4978958;28;20329;-81
2021/01/18 08:34:53;;;;;;;28.50;17.10;;;;;;;;;;4973450;28;20290;-80
2021/01/18 08:37:32;;;;;;;21.23;13.25;;;;;;;;;;4945533;28;20266;-80
2021/01/18 08:40:15;;;;;;;18.50;12.97;;;;;;;;;;4974874;28;20125;-81
2021/01/18 08:45:47;;;;;;;20.77;12.60;;;;;;;;;;4972351;28;20074;-80
2021/01/18 08:48:15;;;;;;;23.43;13.67;;;;;;;;;;4959590;28;20337;-81
2021/01/18 08:51:20;;;;;;;22.03;13.53;;;;;;;;;;4974031;28;20309;-82
2021/01/18 08:53:55;;;;;;;17.47;11.10;;;;;;;;;;4974050;28;20294;-81
2021/01/18 08:56:24;;;;;;;20.17;11.47;;;;;;;;;;4958430;28;20294;-81
2021/01/18 08:59:00;;;;;;;20.17;11.87;;;;;;;;;;4957481;28;20337;-82
2021/01/18 09:01:30;;;;;;;19.27;10.53;;;;;;;;;;4970400;28;20267;-82
2021/01/18 09:04:05;;;;;;;17.50;10.50;;;;;;;;;;4939370;29;20319;-81
2021/01/18 09:06:31;;;;;;;24.00;10.93;;;;;;;;;;4957418;28;20274;-82
2021/01/18 09:09:39;;;;;;;21.63;11.23;;;;;;;;;;4975679;28;20294;-84
2021/01/18 09:12:08;;;;;;;20.80;11.40;;;;;;;;;;4963775;28;20295;-83
2021/01/18 09:14:35;;;;;;;17.87;9.43;;;;;;;;;;4957085;28;20274;-83
2021/01/18 09:17:10;;;;;;;19.93;10.67;;;;;;;;;;4944436;28;20739;-83
2021/01/18 09:19:53;;;;;;;33.10;19.57;;;;;;;;;;4958585;28;20290;-82
2021/01/18 09:22:28;;;;;;;17.52;10.50;;;;;;;;;;4959306;28;20378;-83
2021/01/18 09:24:54;;;;;;;15.90;9.77;;;;;;;;;;4985514;28;20090;-83
2021/01/18 09:27:20;;;;;;;18.23;9.47;;;;;;;;;;4955880;28;20285;-84
2021/01/18 09:30:00;;;;;;;19.83;8.90;;;;;;;;;;4970701;28;20803;-82
2021/01/18 09:32:27;;;;;;;16.53;8.57;;;;;;;;;;4973224;28;20285;-82
2021/01/18 09:35:11;;;;;;;16.50;10.07;;;;;;;;;;4973843;28;20317;-82
2021/01/18 09:37:41;;;;;;;17.48;9.73;;;;;;;;;;4971921;28;20289;-82
2021/01/18 09:40:08;;;;;;;14.57;8.60;;;;;;;;;;4957865;28;20444;-83
2021/01/18 09:42:48;;;;;;;14.43;8.00;;;;;;;;;;4956463;28;20286;-82
2021/01/18 09:45:14;;;;;;;21.47;8.77;;;;;;;;;;4955620;29;20282;-82
2021/01/18 09:47:42;;;;;;;16.33;9.77;;;;;;;;;;4954525;29;20275;-83
2021/01/18 09:50:17;;;;;;;13.13;7.73;;;;;;;;;;4978145;28;20274;-86
2021/01/18 09:52:53;;;;;;;15.50;8.13;;;;;;;;;;4978994;28;20282;-81
2021/01/18 09:55:39;;;;;;;13.07;6.60;;;;;;;;;;4931853;28;20281;-81
2021/01/18 09:58:16;;;;;;;11.53;6.53;;;;;;;;;;4945261;28;20767;-81
2021/01/18 10:00:42;;;;;;;19.20;7.80;;;;;;;;;;4973595;28;20282;-82
2021/01/18 10:03:20;;;;;;;14.73;7.20;;;;;;;;;;4958506;28;20278;-85
2021/01/18 10:05:50;;;;;;;15.23;8.17;;;;;;;;;;4963192;28;20273;-86
2021/01/18 10:08:34;;;;;;;16.20;8.63;;;;;;;;;;4963183;28;20355;-82
2021/01/18 10:11:04;;;;;;;12.77;7.97;;;;;;;;;;4949847;28;20286;-83
2021/01/18 10:13:40;;;;;;;17.73;7.47;;;;;;;;;;4969007;28;20035;-82
2021/01/18 10:16:08;;;;;;;13.90;7.93;;;;;;;;;;4945780;28;20270;-82
2021/01/18 10:18:39;;;;;;;18.03;9.50;;;;;;;;;;4941515;28;20291;-82
2021/01/18 10:21:06;;;;;;;13.23;6.93;;;;;;;;;;4954521;28;20282;-81
2021/01/18 10:23:49;;;;;;;12.23;6.30;;;;;;;;;;4974746;28;20414;-83
2021/01/18 10:26:19;;;;;;;13.43;6.88;;;;;;;;;;4975834;28;20279;-82
2021/01/18 10:28:50;;;;;;;13.93;6.77;;;;;;;;;;4952843;28;20535;-80
2021/01/18 10:31:35;;;;;;;9.93;5.93;;;;;;;;;;4944466;29;20105;-81
2021/01/18 10:34:25;;;;;;;9.40;5.53;;;;;;;;;;4955551;28;20037;-79
2021/01/18 10:36:52;;;;;;;12.00;6.23;;;;;;;;;;4945336;28;20031;-81
2021/01/18 10:39:24;;;;;;;9.33;5.00;;;;;;;;;;4962710;28;20094;-80
2021/01/18 10:41:52;;;;;;;12.97;5.00;;;;;;;;;;4935854;29;20028;-79
2021/01/18 10:44:21;;;;;;;11.33;5.77;;;;;;;;;;4959142;28;20015;-80
2021/01/18 10:46:51;;;;;;;10.50;5.67;;;;;;;;;;4979809;28;20732;-79
2021/01/18 10:49:23;;;;;;;10.90;5.33;;;;;;;;;;4985171;28;20027;-80
2021/01/18 10:52:03;;;;;;;11.30;5.75;;;;;;;;;;4986241;28;20038;-79
2021/01/18 10:54:29;;;;;;;13.33;7.57;;;;;;;;;;4989448;28;20424;-79
2021/01/18 10:56:59;;;;;;;11.77;6.30;;;;;;;;;;4974971;28;20054;-80
2021/01/18 10:59:26;;;;;;;14.80;6.60;;;;;;;;;;4978711;28;20059;-80
2021/01/18 11:02:01;;;;;;;13.03;7.13;;;;;;;;;;4980967;28;20289;-79
2021/01/18 11:04:28;;;;;;;14.17;6.93;;;;;;;;;;4972694;28;20318;-78
2021/01/18 11:06:56;;;;;;;12.97;7.13;;;;;;;;;;4974583;28;20282;-79
2021/01/18 11:09:29;;;;;;;12.80;6.50;;;;;;;;;;4970415;28;20286;-84
2021/01/18 11:11:56;;;;;;;10.43;6.27;;;;;;;;;;4982807;28;20278;-81
2021/01/18 11:14:23;;;;;;;11.33;6.63;;;;;;;;;;4979883;28;20357;-82
2021/01/18 11:17:09;;;;;;;14.93;6.90;;;;;;;;;;4972736;28;20031;-82
2021/01/18 11:19:36;;;;;;;18.37;8.23;;;;;;;;;;4964738;28;20281;-82
2021/01/18 11:22:06;;;;;;;13.70;5.93;;;;;;;;;;4983572;28;20294;-82
2021/01/18 11:24:38;;;;;;;12.53;7.43;;;;;;;;;;4973990;28;20129;-81
2021/01/18 11:27:04;;;;;;;14.67;6.33;;;;;;;;;;4978160;28;20377;-82
2021/01/18 11:29:32;;;;;;;10.40;6.60;;;;;;;;;;4964240;28;20298;-82
2021/01/18 11:31:58;;;;;;;13.00;6.30;;;;;;;;;;4970475;28;20297;-82
2021/01/18 11:34:24;;;;;;;13.33;6.50;;;;;;;;;;4959667;28;20344;-82
2021/01/18 11:36:50;;;;;;;12.97;7.60;;;;;;;;;;4953555;28;20310;-81
2021/01/18 11:39:20;;;;;;;16.17;8.37;;;;;;;;;;4959186;28;20294;-81
2021/01/18 11:41:46;;;;;;;12.10;6.67;;;;;;;;;;4953389;28;20278;-82
2021/01/18 11:44:12;;;;;;;15.17;7.87;;;;;;;;;;4962422;28;20313;-79
2021/01/18 11:46:45;;;;;;;13.57;6.83;;;;;;;;;;4961511;28;20921;-82
2021/01/18 11:49:11;;;;;;;10.98;5.53;;;;;;;;;;4978202;28;20360;-81
2021/01/18 11:51:37;;;;;;;13.70;6.83;;;;;;;;;;4977756;28;20039;-82
2021/01/18 11:54:04;;;;;;;12.23;6.97;;;;;;;;;;4969181;28;20653;-81
2021/01/18 11:56:30;;;;;;;17.07;7.70;;;;;;;;;;4969415;28;20369;-82
2021/01/18 11:58:57;;;;;;;15.33;8.93;;;;;;;;;;4990134;28;20266;-81
2021/01/18 12:01:23;;;;;;;11.53;6.60;;;;;;;;;;4964726;28;20274;-82
2021/01/18 12:03:49;;;;;;;12.53;6.50;;;;;;;;;;4954747;28;20278;-82
2021/01/18 12:06:15;;;;;;;12.87;6.77;;;;;;;;;;4968950;28;20278;-79
2021/01/18 12:08:41;;;;;;;12.37;6.47;;;;;;;;;;4972989;28;20357;-79
2021/01/18 12:11:07;;;;;;;12.87;6.93;;;;;;;;;;4955895;28;20279;-80
2021/01/18 12:13:33;;;;;;;16.33;7.63;;;;;;;;;;4970709;28;20295;-80
2021/01/18 12:16:00;;;;;;;15.27;9.57;;;;;;;;;;4969870;28;20305;-80
2021/01/18 12:18:26;;;;;;;18.60;7.23;;;;;;;;;;4954524;29;20287;-78
2021/01/18 12:20:52;;;;;;;14.03;6.70;;;;;;;;;;4968515;28;20271;-79
2021/01/18 12:23:19;;;;;;;12.47;7.13;;;;;;;;;;4957949;28;20282;-80
2021/01/18 12:25:46;;;;;;;13.70;7.03;;;;;;;;;;4971893;28;20287;-78
2021/01/18 12:28:12;;;;;;;13.60;7.50;;;;;;;;;;4962366;28;20286;-79
2021/01/18 12:30:38;;;;;;;20.90;9.23;;;;;;;;;;4950924;28;20266;-78
2021/01/18 12:33:04;;;;;;;15.87;6.83;;;;;;;;;;4975293;28;20859;-79
2021/01/18 12:35:31;;;;;;;9.43;5.53;;;;;;;;;;4973335;28;20282;-77
2021/01/18 12:37:57;;;;;;;17.00;8.23;;;;;;;;;;4975155;28;20270;-82
2021/01/18 12:40:24;;;;;;;14.43;7.60;;;;;;;;;;4975823;28;20294;-82
2021/01/18 12:42:51;;;;;;;16.60;8.17;;;;;;;;;;4958270;28;20286;-81
2021/01/18 12:45:17;;;;;;;15.90;8.37;;;;;;;;;;4957313;28;20278;-77
2021/01/18 12:47:44;;;;;;;18.57;7.50;;;;;;;;;;4972953;28;20306;-78
2021/01/18 12:50:10;;;;;;;20.87;9.93;;;;;;;;;;4975484;28;20354;-78
2021/01/18 12:52:41;;;;;;;17.20;8.83;;;;;;;;;;4972180;28;20293;-78
2021/01/18 12:55:08;;;;;;;15.33;7.43;;;;;;;;;;4941031;29;20275;-81
2021/01/18 12:57:34;;;;;;;13.77;8.47;;;;;;;;;;4954238;28;20364;-80
2021/01/18 13:00:00;;;;;;;13.57;7.20;;;;;;;;;;4971213;28;20282;-78
2021/01/18 13:02:26;;;;;;;15.20;7.67;;;;;;;;;;4970351;28;20452;-78
2021/01/18 13:04:52;;;;;;;20.83;8.13;;;;;;;;;;4954817;28;20294;-79
2021/01/18 13:07:18;;;;;;;17.93;7.60;;;;;;;;;;4971863;28;20302;-80
2021/01/18 13:09:46;;;;;;;14.27;7.80;;;;;;;;;;4968910;28;20308;-80
2021/01/18 13:12:12;;;;;;;22.60;9.50;;;;;;;;;;4968100;28;20329;-79
2021/01/18 13:14:38;;;;;;;18.80;9.27;;;;;;;;;;4955369;28;20712;-79
2021/01/18 13:17:06;;;;;;;11.43;6.87;;;;;;;;;;4961146;28;20278;-81
2021/01/18 13:19:34;;;;;;;18.20;7.77;;;;;;;;;;4970721;28;20301;-80
2021/01/18 13:22:01;;;;;;;15.27;8.83;;;;;;;;;;4976274;28;20263;-81
2021/01/18 13:24:30;;;;;;;17.40;9.77;;;;;;;;;;4988903;28;20262;-81
2021/01/18 13:26:56;;;;;;;16.33;8.27;;;;;;;;;;4972813;28;20624;-81
2021/01/18 13:29:22;;;;;;;15.10;7.37;;;;;;;;;;4974600;28;20349;-80
2021/01/18 13:31:48;;;;;;;13.43;7.20;;;;;;;;;;4975316;28;20282;-80
2021/01/18 13:34:17;;;;;;;15.90;8.23;;;;;;;;;;4977537;28;20259;-80
2021/01/18 13:36:43;;;;;;;14.87;7.33;;;;;;;;;;4989670;28;20273;-80
2021/01/18 13:39:14;;;;;;;17.67;8.37;;;;;;;;;;4970868;28;20282;-81
2021/01/18 13:41:40;;;;;;;15.73;8.37;;;;;;;;;;4956440;28;20360;-80
2021/01/18 13:44:09;;;;;;;13.20;7.70;;;;;;;;;;4974446;28;20290;-81
2021/01/18 13:46:37;;;;;;;13.57;7.23;;;;;;;;;;4969930;28;20279;-82
2021/01/18 13:49:03;;;;;;;14.83;7.60;;;;;;;;;;4973849;28;20293;-80
2021/01/18 13:51:30;;;;;;;13.03;7.57;;;;;;;;;;4954814;29;20275;-81
2021/01/18 13:53:56;;;;;;;12.77;8.00;;;;;;;;;;4964462;28;20370;-80
2021/01/18 13:56:23;;;;;;;14.83;8.07;;;;;;;;;;4984974;28;20349;-80
2021/01/18 13:58:49;;;;;;;12.87;7.93;;;;;;;;;;4976404;28;20289;-80
2021/01/18 14:01:23;;;;;;;14.07;8.37;;;;;;;;;;4957465;28;20274;-80
2021/01/18 14:03:49;;;;;;;12.13;7.20;;;;;;;;;;4957680;28;20667;-80
2021/01/18 14:06:25;;;;;;;12.33;6.43;;;;;;;;;;4965540;28;20041;-81
2021/01/18 14:08:58;;;;;;;16.43;7.57;;;;;;;;;;4954311;29;20283;-80
2021/01/18 14:11:38;;;;;;;13.87;7.93;;;;;;;;;;4956001;28;20325;-78
2021/01/18 14:14:04;;;;;;;14.37;8.53;;;;;;;;;;4939047;28;21083;-79
2021/01/18 14:16:30;;;;;;;14.87;7.93;;;;;;;;;;4970544;28;20366;-79
2021/01/18 14:18:56;;;;;;;14.03;7.90;;;;;;;;;;4974467;28;20740;-79
2021/01/18 14:21:30;;;;;;;14.87;9.07;;;;;;;;;;4955876;28;20345;-79
2021/01/18 14:24:03;;;;;;;18.10;7.15;;;;;;;;;;4960115;28;20278;-78
2021/01/18 14:26:31;;;;;;;10.07;5.95;;;;;;;;;;4971814;28;20026;-81
2021/01/18 14:28:57;;;;;;;16.07;8.23;;;;;;;;;;4968616;28;20019;-79
2021/01/18 14:31:24;;;;;;;15.47;8.50;;;;;;;;;;4954460;28;20306;-78
2021/01/18 14:33:51;;;;;;;16.10;8.80;;;;;;;;;;4956190;28;20317;-79
2021/01/18 14:36:19;;;;;;;13.80;7.50;;;;;;;;;;4958471;28;20270;-80
2021/01/18 14:38:45;;;;;;;13.83;7.97;;;;;;;;;;4956000;28;20269;-79
2021/01/18 14:41:21;;;;;;;14.47;7.30;;;;;;;;;;4953807;28;20416;-79
2021/01/18 14:43:48;;;;;;;13.00;7.23;;;;;;;;;;4970634;28;20274;-79
2021/01/18 14:46:15;;;;;;;13.10;7.27;;;;;;;;;;4972922;28;20421;-78
2021/01/18 14:48:42;;;;;;;17.90;8.00;;;;;;;;;;4966703;28;20697;-79
2021/01/18 14:51:09;;;;;;;14.37;8.43;;;;;;;;;;4969805;28;20286;-78
2021/01/18 14:53:35;;;;;;;11.93;7.30;;;;;;;;;;4954986;28;20290;-79
2021/01/18 14:56:01;;;;;;;15.23;8.43;;;;;;;;;;4951666;28;20289;-78
2021/01/18 14:58:30;;;;;;;18.70;7.63;;;;;;;;;;4971539;28;20262;-78
2021/01/18 15:00:56;;;;;;;16.93;9.43;;;;;;;;;;4970153;28;20281;-79
2021/01/18 15:03:22;;;;;;;16.73;9.07;;;;;;;;;;4962351;28;20262;-76
2021/01/18 15:05:50;;;;;;;13.17;8.43;;;;;;;;;;4969745;28;20878;-80
2021/01/18 15:08:19;;;;;;;17.73;8.53;;;;;;;;;;4955775;28;20280;-79
2021/01/18 15:10:46;;;;;;;14.33;6.87;;;;;;;;;;4954375;28;20377;-81
2021/01/18 15:13:12;;;;;;;15.70;8.77;;;;;;;;;;4974145;28;20695;-80
2021/01/18 15:15:38;;;;;;;14.07;8.20;;;;;;;;;;4973348;28;20672;-80
2021/01/18 15:18:04;;;;;;;12.93;7.33;;;;;;;;;;4954279;28;20286;-79
2021/01/18 15:20:31;;;;;;;17.30;9.30;;;;;;;;;;4964968;28;20699;-77
2021/01/18 15:22:57;;;;;;;17.33;9.13;;;;;;;;;;4969500;28;20329;-78
2021/01/18 15:25:23;;;;;;;16.23;8.10;;;;;;;;;;4971329;28;20336;-76
2021/01/18 15:27:50;;;;;;;16.37;9.50;;;;;;;;;;4954591;28;20309;-79
2021/01/18 15:30:19;;;;;;;25.20;10.93;;;;;;;;;;4952900;29;20309;-77
2021/01/18 15:32:45;;;;;;;17.43;9.20;;;;;;;;;;4968408;28;20764;-79
2021/01/18 15:35:21;;;;;;;14.90;8.80;;;;;;;;;;4970695;28;20704;-78
2021/01/18 15:37:48;;;;;;;17.47;9.23;;;;;;;;;;4968644;28;20278;-80
2021/01/18 15:40:14;;;;;;;15.67;7.90;;;;;;;;;;4959305;28;20798;-78
2021/01/18 15:42:41;;;;;;;14.77;9.20;;;;;;;;;;4953647;29;20263;-79
2021/01/18 15:45:07;;;;;;;20.63;10.13;;;;;;;;;;4952661;28;20277;-78
2021/01/18 15:47:34;;;;;;;27.07;14.67;;;;;;;;;;4963615;28;20823;-78
2021/01/18 15:50:00;;;;;;;19.77;12.33;;;;;;;;;;4969728;28;20299;-77
2021/01/18 15:52:26;;;;;;;17.90;8.63;;;;;;;;;;4974825;28;20385;-77
2021/01/18 15:54:53;;;;;;;15.20;8.60;;;;;;;;;;4976628;28;20278;-78